Time;durP1;ratioP1;P1;durP2;ratioP2;P2;SDS_P1;SDS_P2;PMS_P1;PMS_P2;Temp;Humidity;BMP_temperature;BMP_pressure;BME280_temperature;BME280_humidity;BME280_pressure;Samples;Min_cycle;Max_cycle;Signal;HPM_P1;HPM_P2
2022/08/31 00:05:56;;;;;;;5.10;4.70;;;;;;;;;;5060717;28;20405;-76
2022/08/31 00:08:23;;;;;;;5.70;5.20;;;;;;;;;;5059925;28;20491;-76
2022/08/31 00:10:53;;;;;;;7.43;5.00;;;;;;;;;;5056985;28;20445;-75
2022/08/31 00:13:21;;;;;;;5.27;4.80;;;;;;;;;;5051417;28;20830;-75
2022/08/31 00:15:48;;;;;;;5.90;5.40;;;;;;;;;;5051653;28;20503;-76
2022/08/31 00:18:15;;;;;;;5.70;5.20;;;;;;;;;;5051371;28;20485;-75
2022/08/31 00:20:43;;;;;;;5.87;5.27;;;;;;;;;;5051416;28;20855;-76
2022/08/31 00:23:11;;;;;;;5.00;4.57;;;;;;;;;;5051432;28;20449;-76
2022/08/31 00:25:39;;;;;;;5.70;5.20;;;;;;;;;;5050994;28;20486;-78
2022/08/31 00:28:08;;;;;;;5.03;4.60;;;;;;;;;;5051082;28;20475;-76
2022/08/31 00:30:35;;;;;;;7.03;6.00;;;;;;;;;;5051167;28;20488;-77
2022/08/31 00:33:03;;;;;;;5.60;4.23;;;;;;;;;;5050751;28;20445;-76
2022/08/31 00:35:31;;;;;;;5.20;4.70;;;;;;;;;;5051194;28;20453;-76
2022/08/31 00:37:58;;;;;;;5.80;5.33;;;;;;;;;;5050857;28;20481;-76
2022/08/31 00:40:26;;;;;;;6.60;5.77;;;;;;;;;;5051230;28;20455;-76
2022/08/31 00:42:53;;;;;;;5.90;5.40;;;;;;;;;;5050326;28;20456;-78
2022/08/31 00:45:22;;;;;;;6.33;5.23;;;;;;;;;;5050610;28;20448;-75
2022/08/31 00:47:49;;;;;;;6.07;5.27;;;;;;;;;;5050578;28;20530;-75
2022/08/31 00:50:17;;;;;;;5.80;5.37;;;;;;;;;;5050679;28;20975;-75
2022/08/31 00:52:46;;;;;;;6.33;5.83;;;;;;;;;;5050494;28;20445;-76
2022/08/31 00:55:14;;;;;;;11.67;5.00;;;;;;;;;;5050713;28;20934;-75
2022/08/31 00:57:43;;;;;;;6.67;6.07;;;;;;;;;;5050300;28;20477;-78
2022/08/31 01:00:12;;;;;;;7.60;6.40;;;;;;;;;;5050835;28;20441;-76
2022/08/31 01:02:41;;;;;;;12.27;8.30;;;;;;;;;;5051263;28;20437;-75
2022/08/31 01:05:08;;;;;;;8.43;7.47;;;;;;;;;;5053263;28;20476;-77
2022/08/31 01:07:36;;;;;;;9.13;8.23;;;;;;;;;;5054365;28;20523;-75
2022/08/31 01:10:04;;;;;;;13.80;8.47;;;;;;;;;;5052493;28;20449;-75
2022/08/31 01:12:31;;;;;;;10.27;8.00;;;;;;;;;;5051520;28;21109;-75
2022/08/31 01:14:59;;;;;;;10.60;8.63;;;;;;;;;;5051540;28;20468;-75
2022/08/31 01:17:26;;;;;;;11.90;8.70;;;;;;;;;;5050695;28;20489;-76
2022/08/31 01:19:57;;;;;;;9.40;8.47;;;;;;;;;;5049910;28;20450;-74
2022/08/31 01:22:28;;;;;;;10.50;8.67;;;;;;;;;;5050298;28;20450;-77
2022/08/31 01:24:58;;;;;;;11.50;9.53;;;;;;;;;;5050911;28;20445;-76
2022/08/31 01:27:27;;;;;;;10.50;9.40;;;;;;;;;;5049966;28;20488;-74
2022/08/31 01:29:54;;;;;;;9.23;8.30;;;;;;;;;;5049923;28;20543;-75
2022/08/31 01:32:21;;;;;;;11.37;9.33;;;;;;;;;;5049888;28;20441;-75
2022/08/31 01:34:48;;;;;;;12.20;8.97;;;;;;;;;;5049463;28;20824;-75
2022/08/31 01:37:16;;;;;;;11.53;10.17;;;;;;;;;;5050053;28;20526;-76
2022/08/31 01:39:43;;;;;;;11.97;9.33;;;;;;;;;;5049994;28;20452;-75
2022/08/31 01:42:11;;;;;;;11.03;8.90;;;;;;;;;;5049954;28;20445;-76
2022/08/31 01:44:38;;;;;;;10.40;9.50;;;;;;;;;;5049979;28;20454;-74
2022/08/31 01:47:05;;;;;;;10.50;9.50;;;;;;;;;;5049527;28;20477;-76
2022/08/31 01:49:32;;;;;;;9.90;8.90;;;;;;;;;;5049482;28;20441;-75
2022/08/31 01:51:59;;;;;;;12.33;10.70;;;;;;;;;;5049650;28;20457;-75
2022/08/31 01:54:26;;;;;;;10.93;9.90;;;;;;;;;;5049557;28;20445;-74
2022/08/31 01:56:54;;;;;;;14.80;11.30;;;;;;;;;;5049496;28;20503;-76
2022/08/31 01:59:23;;;;;;;10.90;9.80;;;;;;;;;;5049496;28;21002;-75
2022/08/31 02:01:50;;;;;;;11.30;10.20;;;;;;;;;;5049432;28;20467;-75
2022/08/31 02:04:19;;;;;;;13.63;10.10;;;;;;;;;;5049908;28;20503;-75
2022/08/31 02:06:47;;;;;;;10.70;9.70;;;;;;;;;;5050314;28;20469;-75
2022/08/31 02:09:15;;;;;;;11.10;9.80;;;;;;;;;;5049508;28;20825;-75
2022/08/31 02:11:42;;;;;;;10.60;9.50;;;;;;;;;;5049239;28;20872;-75
2022/08/31 02:14:10;;;;;;;11.10;10.13;;;;;;;;;;5052345;28;20495;-75
2022/08/31 02:16:38;;;;;;;12.77;9.63;;;;;;;;;;5052633;28;20519;-76
2022/08/31 02:19:06;;;;;;;11.23;10.17;;;;;;;;;;5052960;28;21137;-75
2022/08/31 02:21:33;;;;;;;11.67;10.57;;;;;;;;;;5053056;28;20507;-76
2022/08/31 02:24:00;;;;;;;10.47;9.53;;;;;;;;;;5052239;28;21015;-74
2022/08/31 02:26:27;;;;;;;13.23;11.27;;;;;;;;;;5052819;28;20465;-76
2022/08/31 02:28:54;;;;;;;11.23;10.30;;;;;;;;;;5052797;28;20949;-75
2022/08/31 02:31:21;;;;;;;11.37;10.27;;;;;;;;;;5055140;28;20449;-75
2022/08/31 02:33:49;;;;;;;11.40;10.40;;;;;;;;;;5059148;28;20446;-74
2022/08/31 02:36:17;;;;;;;11.17;10.23;;;;;;;;;;5059564;28;20910;-74
2022/08/31 02:38:44;;;;;;;11.97;10.77;;;;;;;;;;5053258;28;20615;-74
2022/08/31 02:41:11;;;;;;;13.10;10.70;;;;;;;;;;5052669;28;20568;-76
2022/08/31 02:43:38;;;;;;;11.17;10.17;;;;;;;;;;5052636;28;20523;-74
2022/08/31 02:46:05;;;;;;;12.30;11.07;;;;;;;;;;5052691;28;20476;-75
2022/08/31 02:48:32;;;;;;;10.93;9.93;;;;;;;;;;5059258;28;20450;-76
2022/08/31 02:51:05;;;;;;;12.50;10.80;;;;;;;;;;5069607;28;20468;-74
2022/08/31 02:53:32;;;;;;;11.13;10.03;;;;;;;;;;5066366;28;20476;-75
2022/08/31 02:55:59;;;;;;;11.90;10.80;;;;;;;;;;5052703;28;20446;-74
2022/08/31 02:58:26;;;;;;;12.10;10.90;;;;;;;;;;5052536;28;20481;-75
2022/08/31 03:00:53;;;;;;;12.13;10.90;;;;;;;;;;5052600;28;20589;-76
2022/08/31 03:03:21;;;;;;;11.67;10.67;;;;;;;;;;5052403;28;20445;-75
2022/08/31 03:05:48;;;;;;;11.67;10.67;;;;;;;;;;5052344;28;20956;-75
2022/08/31 03:08:17;;;;;;;11.57;10.57;;;;;;;;;;5052349;28;20495;-75
2022/08/31 03:10:44;;;;;;;12.33;11.13;;;;;;;;;;5052368;28;20434;-75
2022/08/31 03:13:11;;;;;;;12.27;11.17;;;;;;;;;;5051846;28;20453;-75
2022/08/31 03:15:38;;;;;;;12.90;11.73;;;;;;;;;;5051973;28;20450;-75
2022/08/31 03:18:05;;;;;;;12.47;11.27;;;;;;;;;;5051972;28;20527;-75
2022/08/31 03:20:32;;;;;;;11.83;10.80;;;;;;;;;;5052108;28;20445;-74
2022/08/31 03:22:59;;;;;;;11.90;10.70;;;;;;;;;;5051526;28;21256;-76
2022/08/31 03:25:27;;;;;;;13.23;12.00;;;;;;;;;;5050835;28;20453;-76
2022/08/31 03:27:54;;;;;;;12.40;11.27;;;;;;;;;;5051679;28;20469;-74
2022/08/31 03:30:22;;;;;;;12.27;11.07;;;;;;;;;;5051849;28;20452;-76
2022/08/31 03:32:50;;;;;;;10.87;9.90;;;;;;;;;;5051300;28;20457;-75
2022/08/31 03:35:17;;;;;;;13.00;11.90;;;;;;;;;;5051424;28;20441;-74
2022/08/31 03:37:44;;;;;;;12.77;11.57;;;;;;;;;;5051366;28;20553;-75
2022/08/31 03:40:11;;;;;;;12.70;11.40;;;;;;;;;;5051474;28;20449;-75
2022/08/31 03:42:40;;;;;;;12.47;11.37;;;;;;;;;;5051120;28;20450;-75
2022/08/31 03:45:07;;;;;;;12.93;11.77;;;;;;;;;;5051362;28;20468;-75
2022/08/31 03:47:35;;;;;;;12.30;11.20;;;;;;;;;;5051284;28;20512;-75
2022/08/31 03:50:04;;;;;;;12.87;11.67;;;;;;;;;;5051707;28;20455;-75
2022/08/31 03:52:31;;;;;;;11.50;10.50;;;;;;;;;;5050726;28;20449;-75
2022/08/31 03:54:58;;;;;;;12.60;11.50;;;;;;;;;;5051162;28;20445;-76
2022/08/31 03:57:25;;;;;;;14.30;13.00;;;;;;;;;;5051159;28;20892;-74
2022/08/31 03:59:54;;;;;;;12.63;11.37;;;;;;;;;;5051028;28;20539;-74
2022/08/31 04:02:22;;;;;;;13.57;12.43;;;;;;;;;;5051125;28;20537;-76
2022/08/31 04:04:50;;;;;;;13.60;12.30;;;;;;;;;;5051085;28;20457;-76
2022/08/31 04:07:17;;;;;;;13.27;11.83;;;;;;;;;;5051241;28;20466;-75
2022/08/31 04:09:44;;;;;;;11.70;10.70;;;;;;;;;;5051244;28;20515;-75
2022/08/31 04:12:11;;;;;;;13.37;12.17;;;;;;;;;;5050934;28;20449;-75
2022/08/31 04:14:38;;;;;;;13.17;12.03;;;;;;;;;;5050920;28;20491;-74
2022/08/31 04:17:10;;;;;;;12.50;11.40;;;;;;;;;;5051013;28;20464;-75
2022/08/31 04:19:37;;;;;;;11.80;10.90;;;;;;;;;;5051222;28;20461;-74
2022/08/31 04:22:04;;;;;;;11.87;10.87;;;;;;;;;;5050886;28;20449;-74
2022/08/31 04:24:31;;;;;;;12.00;11.00;;;;;;;;;;5050374;28;20495;-75
2022/08/31 04:26:58;;;;;;;13.00;11.80;;;;;;;;;;5050221;28;21035;-74
2022/08/31 04:29:25;;;;;;;12.47;11.37;;;;;;;;;;5050579;28;20507;-74
2022/08/31 04:31:52;;;;;;;12.20;10.97;;;;;;;;;;5050146;28;20447;-74
2022/08/31 04:34:20;;;;;;;11.20;10.20;;;;;;;;;;5050062;28;20963;-75
2022/08/31 04:36:47;;;;;;;12.47;11.37;;;;;;;;;;5049932;28;20461;-75
2022/08/31 04:39:15;;;;;;;12.83;11.63;;;;;;;;;;5050579;28;20527;-75
2022/08/31 04:41:42;;;;;;;11.87;10.90;;;;;;;;;;5050263;28;20446;-76
2022/08/31 04:44:10;;;;;;;14.03;12.67;;;;;;;;;;5050064;28;20453;-78
2022/08/31 04:46:38;;;;;;;12.23;11.03;;;;;;;;;;5050340;28;20572;-75
2022/08/31 04:49:06;;;;;;;12.80;11.47;;;;;;;;;;5050710;28;20449;-76
2022/08/31 04:51:35;;;;;;;11.50;10.60;;;;;;;;;;5050921;28;20453;-75
2022/08/31 04:54:03;;;;;;;10.50;9.40;;;;;;;;;;5050132;28;20862;-77
2022/08/31 04:56:32;;;;;;;13.10;12.07;;;;;;;;;;5050085;28;20465;-76
2022/08/31 04:59:01;;;;;;;12.10;10.90;;;;;;;;;;5050355;28;20477;-75
2022/08/31 05:01:29;;;;;;;13.07;11.83;;;;;;;;;;5050614;28;21003;-76
2022/08/31 05:03:57;;;;;;;12.87;11.67;;;;;;;;;;5050734;28;20470;-75
2022/08/31 05:06:26;;;;;;;13.53;12.30;;;;;;;;;;5050668;28;20876;-76
2022/08/31 05:08:55;;;;;;;13.97;12.57;;;;;;;;;;5050900;28;20437;-75
2022/08/31 05:11:23;;;;;;;14.03;12.83;;;;;;;;;;5050669;28;20510;-75
2022/08/31 05:13:51;;;;;;;13.67;12.57;;;;;;;;;;5050763;28;20495;-76
2022/08/31 05:16:19;;;;;;;14.47;13.07;;;;;;;;;;5062162;28;20521;-75
2022/08/31 05:18:46;;;;;;;15.13;13.73;;;;;;;;;;5061626;28;20481;-76
2022/08/31 05:21:15;;;;;;;11.87;10.67;;;;;;;;;;5062235;28;20449;-76
2022/08/31 05:23:43;;;;;;;10.90;10.00;;;;;;;;;;5064673;28;20438;-75
2022/08/31 05:26:16;;;;;;;11.90;11.00;;;;;;;;;;5064411;28;20454;-76
2022/08/31 05:28:43;;;;;;;12.83;11.73;;;;;;;;;;5052901;28;20437;-76
2022/08/31 05:31:10;;;;;;;14.40;13.10;;;;;;;;;;5050798;28;20496;-74
2022/08/31 05:33:37;;;;;;;13.93;12.67;;;;;;;;;;5049997;28;20797;-75
2022/08/31 05:36:05;;;;;;;12.83;11.83;;;;;;;;;;5050271;28;20530;-74
2022/08/31 05:38:32;;;;;;;12.97;11.83;;;;;;;;;;5049922;28;20441;-75
2022/08/31 05:40:59;;;;;;;13.77;12.53;;;;;;;;;;5050266;28;20513;-75
2022/08/31 05:43:28;;;;;;;13.90;12.70;;;;;;;;;;5049468;28;20933;-74
2022/08/31 05:45:56;;;;;;;12.20;11.00;;;;;;;;;;5049453;28;20507;-76
2022/08/31 05:48:23;;;;;;;11.20;10.23;;;;;;;;;;5051775;28;20502;-76
2022/08/31 05:50:50;;;;;;;13.07;11.93;;;;;;;;;;5053493;28;21066;-76
2022/08/31 05:53:17;;;;;;;11.67;10.60;;;;;;;;;;5053107;28;20450;-75
2022/08/31 05:55:44;;;;;;;13.00;11.80;;;;;;;;;;5053247;28;20885;-75
2022/08/31 05:58:12;;;;;;;12.07;11.07;;;;;;;;;;5053332;28;20445;-75
2022/08/31 06:00:42;;;;;;;11.27;10.27;;;;;;;;;;5053955;28;20540;-75
2022/08/31 06:03:09;;;;;;;12.07;11.03;;;;;;;;;;5053987;28;20551;-75
2022/08/31 06:05:37;;;;;;;11.17;10.17;;;;;;;;;;5053743;28;20449;-75
2022/08/31 06:08:04;;;;;;;11.67;10.47;;;;;;;;;;5054024;28;20505;-74
2022/08/31 06:10:31;;;;;;;10.47;9.47;;;;;;;;;;5053456;28;20492;-75
2022/08/31 06:13:00;;;;;;;11.23;10.23;;;;;;;;;;5053446;28;20445;-75
2022/08/31 06:15:28;;;;;;;11.30;10.30;;;;;;;;;;5053827;28;20540;-77
2022/08/31 06:17:56;;;;;;;11.20;10.30;;;;;;;;;;5053555;28;20868;-76
2022/08/31 06:20:23;;;;;;;12.60;11.60;;;;;;;;;;5053836;28;20488;-75
2022/08/31 06:22:50;;;;;;;12.37;11.20;;;;;;;;;;5060605;28;20441;-75
2022/08/31 06:25:18;;;;;;;12.27;11.23;;;;;;;;;;5060777;28;20797;-75
2022/08/31 06:27:47;;;;;;;12.90;11.20;;;;;;;;;;5058342;28;20465;-75
2022/08/31 06:30:17;;;;;;;12.10;11.00;;;;;;;;;;5055113;28;20948;-77
2022/08/31 06:32:44;;;;;;;13.53;12.23;;;;;;;;;;5057413;28;20449;-76
2022/08/31 06:35:13;;;;;;;12.40;11.17;;;;;;;;;;5059435;28;20446;-76
2022/08/31 06:37:40;;;;;;;11.20;10.30;;;;;;;;;;5058789;28;20527;-76
2022/08/31 06:40:07;;;;;;;16.37;11.67;;;;;;;;;;5058356;28;20478;-75
2022/08/31 06:42:34;;;;;;;11.60;10.60;;;;;;;;;;5057561;28;20468;-76
2022/08/31 06:45:01;;;;;;;12.93;11.70;;;;;;;;;;5053879;28;20503;-75
2022/08/31 06:47:28;;;;;;;12.17;11.07;;;;;;;;;;5052916;28;20477;-78
2022/08/31 06:49:56;;;;;;;12.40;11.30;;;;;;;;;;5053265;28;20437;-75
2022/08/31 06:52:25;;;;;;;13.30;12.20;;;;;;;;;;5053425;28;20446;-74
2022/08/31 06:54:52;;;;;;;11.50;10.50;;;;;;;;;;5053663;28;20511;-76
2022/08/31 06:57:19;;;;;;;11.87;10.67;;;;;;;;;;5050336;28;20478;-75
2022/08/31 06:59:46;;;;;;;10.67;9.87;;;;;;;;;;5057275;28;20561;-75
2022/08/31 07:02:13;;;;;;;11.03;10.00;;;;;;;;;;5054567;28;20788;-76
2022/08/31 07:04:40;;;;;;;11.47;10.47;;;;;;;;;;5053457;28;20449;-77
2022/08/31 07:07:10;;;;;;;10.90;9.97;;;;;;;;;;5053074;28;20465;-75
2022/08/31 07:09:39;;;;;;;12.63;11.43;;;;;;;;;;5052657;28;20539;-74
2022/08/31 07:12:07;;;;;;;10.50;9.70;;;;;;;;;;5053675;28;20446;-74
2022/08/31 07:14:35;;;;;;;10.77;9.97;;;;;;;;;;5053364;28;20445;-74
2022/08/31 07:17:02;;;;;;;10.93;9.73;;;;;;;;;;5054501;28;20500;-76
2022/08/31 07:19:29;;;;;;;9.80;8.80;;;;;;;;;;5057902;28;20501;-75
2022/08/31 07:21:57;;;;;;;10.37;9.57;;;;;;;;;;5057168;28;20445;-75
2022/08/31 07:24:27;;;;;;;12.20;11.10;;;;;;;;;;5055032;28;20945;-74
2022/08/31 07:26:57;;;;;;;10.97;10.00;;;;;;;;;;5053206;28;20960;-74
2022/08/31 07:29:24;;;;;;;12.67;11.57;;;;;;;;;;5053468;28;20529;-74
2022/08/31 07:31:51;;;;;;;12.63;11.43;;;;;;;;;;5053004;28;20487;-74
2022/08/31 07:34:20;;;;;;;11.37;10.47;;;;;;;;;;5052153;28;20445;-75
2022/08/31 07:42:19;;;;;;;12.00;10.83;;;;;;;;;;5052299;28;20429;-75
2022/08/31 07:44:48;;;;;;;12.90;11.70;;;;;;;;;;5051908;28;20437;-76
2022/08/31 07:47:19;;;;;;;11.83;10.83;;;;;;;;;;5051830;28;20929;-76
2022/08/31 07:49:50;;;;;;;10.00;9.17;;;;;;;;;;5060852;28;20513;-75
2022/08/31 07:52:20;;;;;;;11.37;10.37;;;;;;;;;;5054686;28;20451;-75
2022/08/31 07:54:47;;;;;;;10.40;9.50;;;;;;;;;;5051741;28;20453;-75
2022/08/31 07:57:15;;;;;;;10.67;9.87;;;;;;;;;;5052131;28;20515;-75
2022/08/31 07:59:43;;;;;;;10.83;9.93;;;;;;;;;;5051525;28;20473;-75
2022/08/31 08:02:10;;;;;;;13.30;11.90;;;;;;;;;;5051780;28;20496;-76
2022/08/31 08:04:38;;;;;;;12.93;11.70;;;;;;;;;;5051742;28;21127;-76
2022/08/31 08:07:05;;;;;;;12.33;11.23;;;;;;;;;;5051971;28;20465;-74
2022/08/31 08:09:33;;;;;;;12.10;10.87;;;;;;;;;;5051732;28;20436;-76
2022/08/31 08:12:05;;;;;;;12.30;11.10;;;;;;;;;;5051294;28;20523;-75
2022/08/31 08:14:33;;;;;;;13.30;10.90;;;;;;;;;;5051835;28;20457;-76
2022/08/31 08:17:01;;;;;;;11.17;10.27;;;;;;;;;;5050891;28;20954;-76
2022/08/31 08:19:28;;;;;;;12.30;10.77;;;;;;;;;;5051620;28;21051;-75
2022/08/31 08:21:56;;;;;;;10.93;9.93;;;;;;;;;;5051958;28;20572;-76
2022/08/31 08:24:24;;;;;;;12.17;11.17;;;;;;;;;;5051087;28;20479;-75
2022/08/31 08:26:51;;;;;;;11.87;10.77;;;;;;;;;;5051519;28;20462;-76
2022/08/31 08:29:19;;;;;;;12.73;11.63;;;;;;;;;;5050950;28;20476;-74
2022/08/31 08:31:51;;;;;;;11.37;10.47;;;;;;;;;;5051427;28;20452;-75
2022/08/31 08:34:20;;;;;;;12.27;11.20;;;;;;;;;;5050466;28;20527;-76
2022/08/31 08:36:47;;;;;;;11.50;10.57;;;;;;;;;;5050468;28;20465;-75
2022/08/31 08:39:14;;;;;;;11.93;11.03;;;;;;;;;;5056399;28;20444;-75
2022/08/31 08:41:43;;;;;;;12.33;11.07;;;;;;;;;;5058527;28;20434;-76
2022/08/31 08:44:11;;;;;;;11.67;10.77;;;;;;;;;;5058488;28;20449;-77
2022/08/31 08:46:40;;;;;;;12.43;11.30;;;;;;;;;;5057418;28;20473;-74
2022/08/31 08:49:13;;;;;;;12.27;11.17;;;;;;;;;;5060692;28;20438;-76
2022/08/31 08:51:42;;;;;;;11.93;10.80;;;;;;;;;;5058345;28;20449;-75
2022/08/31 08:54:11;;;;;;;12.47;11.30;;;;;;;;;;5051545;28;20705;-75
2022/08/31 08:56:47;;;;;;;12.20;11.07;;;;;;;;;;5050680;28;20462;-75
2022/08/31 08:59:15;;;;;;;12.10;10.90;;;;;;;;;;5051307;28;20495;-75
2022/08/31 09:01:45;;;;;;;11.63;10.60;;;;;;;;;;5050543;28;20473;-75
2022/08/31 09:04:19;;;;;;;11.83;10.93;;;;;;;;;;5050595;28;20476;-77
2022/08/31 09:06:53;;;;;;;11.50;10.60;;;;;;;;;;5050361;28;20472;-76
2022/08/31 09:09:25;;;;;;;11.37;10.37;;;;;;;;;;5050742;28;20450;-75
2022/08/31 09:12:00;;;;;;;11.07;10.07;;;;;;;;;;5050704;28;20446;-76
2022/08/31 09:14:35;;;;;;;12.47;11.33;;;;;;;;;;5050316;28;20449;-75
2022/08/31 09:17:05;;;;;;;11.43;10.40;;;;;;;;;;5050298;28;20559;-77
2022/08/31 09:19:57;;;;;;;11.67;10.73;;;;;;;;;;5050112;28;20528;-77
2022/08/31 09:22:20;;;;;;;10.47;9.60;;;;;;;;;;5052648;28;20441;-76
2022/08/31 09:24:51;;;;;;;11.90;10.83;;;;;;;;;;5054710;28;20445;-76
2022/08/31 09:27:18;;;;;;;10.50;9.57;;;;;;;;;;5054360;28;21050;-76
2022/08/31 09:29:45;;;;;;;10.53;9.47;;;;;;;;;;5054284;28;20449;-76
2022/08/31 09:32:16;;;;;;;11.30;10.30;;;;;;;;;;5054613;28;20575;-76
2022/08/31 09:34:52;;;;;;;10.17;9.33;;;;;;;;;;5053975;28;20445;-76
2022/08/31 09:37:22;;;;;;;9.83;8.93;;;;;;;;;;5054266;28;20531;-76
2022/08/31 09:39:50;;;;;;;11.30;10.30;;;;;;;;;;5054280;28;20472;-75
2022/08/31 09:42:28;;;;;;;10.40;9.40;;;;;;;;;;5054574;28;20508;-76
2022/08/31 09:44:57;;;;;;;10.00;9.00;;;;;;;;;;5052238;28;20452;-75
2022/08/31 09:47:43;;;;;;;10.97;9.13;;;;;;;;;;5053129;28;20468;-75
2022/08/31 09:50:10;;;;;;;10.13;9.33;;;;;;;;;;5054058;28;20457;-77
2022/08/31 09:55:26;;;;;;;9.73;8.97;;;;;;;;;;5052496;28;20936;-77
2022/08/31 09:57:57;;;;;;;9.43;8.60;;;;;;;;;;5054880;28;21021;-76
2022/08/31 10:00:31;;;;;;;10.27;9.37;;;;;;;;;;5070043;28;20493;-76
2022/08/31 10:03:07;;;;;;;9.47;8.57;;;;;;;;;;5067155;28;20460;-77
2022/08/31 10:05:39;;;;;;;9.80;8.90;;;;;;;;;;5047883;28;20434;-75
2022/08/31 10:08:12;;;;;;;10.00;9.20;;;;;;;;;;5047541;28;20466;-75
2022/08/31 10:10:42;;;;;;;10.67;9.43;;;;;;;;;;5055110;28;20872;-76
2022/08/31 10:13:10;;;;;;;9.80;9.00;;;;;;;;;;5069485;28;20452;-76
2022/08/31 10:15:40;;;;;;;13.53;10.30;;;;;;;;;;5060054;28;20438;-75
2022/08/31 10:18:12;;;;;;;10.20;9.30;;;;;;;;;;5056655;28;21060;-76
2022/08/31 10:20:45;;;;;;;9.70;8.90;;;;;;;;;;5061066;28;20557;-76
2022/08/31 10:23:19;;;;;;;9.60;8.67;;;;;;;;;;5077133;28;20436;-76
2022/08/31 10:25:51;;;;;;;9.70;8.90;;;;;;;;;;5078854;28;20444;-76
2022/08/31 10:28:24;;;;;;;9.50;8.77;;;;;;;;;;5077096;28;20477;-77
2022/08/31 10:30:57;;;;;;;9.43;8.30;;;;;;;;;;5075588;28;20418;-77
2022/08/31 10:35:01;;;;;;;9.37;8.43;;;;;;;;;;5071842;28;20450;-78
2022/08/31 10:36:14;;;;;;;9.43;8.63;;;;;;;;;;5070119;28;20458;-76
2022/08/31 10:38:47;;;;;;;10.37;8.87;;;;;;;;;;5072299;28;20445;-76
2022/08/31 10:41:19;;;;;;;9.80;8.50;;;;;;;;;;5075144;28;20457;-76
2022/08/31 10:43:49;;;;;;;10.47;9.53;;;;;;;;;;5074726;28;20437;-77
2022/08/31 10:46:17;;;;;;;9.53;8.63;;;;;;;;;;5072554;28;20464;-76
2022/08/31 10:48:53;;;;;;;11.47;9.60;;;;;;;;;;5078012;28;20489;-76
2022/08/31 10:51:26;;;;;;;10.03;9.20;;;;;;;;;;5078199;28;20493;-77
2022/08/31 10:54:01;;;;;;;10.97;9.97;;;;;;;;;;5077637;28;20430;-77
2022/08/31 10:56:34;;;;;;;9.17;8.17;;;;;;;;;;5075705;28;20488;-76
2022/08/31 10:59:06;;;;;;;9.97;9.07;;;;;;;;;;5067898;28;20430;-76
2022/08/31 11:01:38;;;;;;;10.60;9.13;;;;;;;;;;5061398;28;20469;-76
2022/08/31 11:04:24;;;;;;;11.00;9.87;;;;;;;;;;5064817;28;20498;-76
2022/08/31 11:06:56;;;;;;;10.63;9.67;;;;;;;;;;5076142;28;20461;-76
2022/08/31 11:09:26;;;;;;;10.03;9.13;;;;;;;;;;5073342;28;20505;-75
2022/08/31 11:12:05;;;;;;;10.77;9.77;;;;;;;;;;5071217;28;20445;-75
2022/08/31 11:14:48;;;;;;;9.33;8.40;;;;;;;;;;5058878;28;20460;-75
2022/08/31 11:17:23;;;;;;;10.83;9.60;;;;;;;;;;5057526;28;20457;-76
2022/08/31 11:19:58;;;;;;;10.47;9.53;;;;;;;;;;5064189;28;21000;-76
2022/08/31 11:22:36;;;;;;;10.17;9.37;;;;;;;;;;5055714;28;20556;-75
2022/08/31 11:25:13;;;;;;;10.00;9.00;;;;;;;;;;5053633;28;20951;-76
2022/08/31 11:27:43;;;;;;;38.17;10.70;;;;;;;;;;5053034;28;20469;-76
2022/08/31 11:30:15;;;;;;;9.83;8.73;;;;;;;;;;5051473;28;20450;-76
2022/08/31 11:32:45;;;;;;;9.60;8.70;;;;;;;;;;5052196;28;20540;-75
2022/08/31 11:35:14;;;;;;;9.90;8.90;;;;;;;;;;5052627;28;20485;-77
2022/08/31 11:37:54;;;;;;;10.20;8.60;;;;;;;;;;5052147;28;20479;-76
2022/08/31 11:40:42;;;;;;;10.10;9.10;;;;;;;;;;5052357;28;20453;-76
2022/08/31 11:43:13;;;;;;;10.20;9.30;;;;;;;;;;5018741;28;20572;-77
2022/08/31 11:45:40;;;;;;;10.00;9.10;;;;;;;;;;5052437;28;20861;-76
2022/08/31 11:48:10;;;;;;;9.70;8.80;;;;;;;;;;5054463;28;20511;-76
2022/08/31 11:50:55;;;;;;;11.00;10.10;;;;;;;;;;5054211;28;20437;-78
2022/08/31 11:53:24;;;;;;;13.43;9.00;;;;;;;;;;5053781;28;20449;-76
2022/08/31 11:55:52;;;;;;;12.20;10.00;;;;;;;;;;5054752;28;20976;-76
2022/08/31 11:58:25;;;;;;;10.70;9.70;;;;;;;;;;5054535;28;20921;-76
2022/08/31 12:00:56;;;;;;;12.07;9.93;;;;;;;;;;5054783;28;20477;-76
2022/08/31 12:03:51;;;;;;;10.83;9.83;;;;;;;;;;5055260;28;20500;-75
2022/08/31 12:06:46;;;;;;;9.90;9.10;;;;;;;;;;5112749;27;21138;-75
2022/08/31 12:09:21;;;;;;;10.33;8.97;;;;;;;;;;5094580;28;20452;-77
2022/08/31 12:11:52;;;;;;;9.93;9.00;;;;;;;;;;5093253;28;20501;-75
2022/08/31 12:14:22;;;;;;;9.80;8.80;;;;;;;;;;5093135;28;20432;-76
2022/08/31 12:16:56;;;;;;;10.70;9.60;;;;;;;;;;5096699;28;20493;-77
2022/08/31 12:25:23;;;;;;;10.80;9.70;;;;;;;;;;5088897;28;20540;-75
2022/08/31 12:27:57;;;;;;;9.53;8.70;;;;;;;;;;5088396;28;20472;-76
2022/08/31 12:30:25;;;;;;;10.27;9.20;;;;;;;;;;5089263;28;20451;-75
2022/08/31 12:32:57;;;;;;;10.03;9.23;;;;;;;;;;5088538;28;20440;-76
2022/08/31 12:35:25;;;;;;;10.80;9.77;;;;;;;;;;5088601;28;20444;-75
2022/08/31 12:37:58;;;;;;;10.60;9.70;;;;;;;;;;5088426;28;20472;-75
2022/08/31 12:40:27;;;;;;;10.90;9.90;;;;;;;;;;5088757;28;20467;-76
2022/08/31 12:42:56;;;;;;;11.33;10.23;;;;;;;;;;5088048;28;20448;-76
2022/08/31 12:45:36;;;;;;;11.10;10.10;;;;;;;;;;5087760;28;20482;-77
2022/08/31 12:48:06;;;;;;;11.60;10.40;;;;;;;;;;5088431;28;20526;-77
2022/08/31 12:50:36;;;;;;;10.80;9.90;;;;;;;;;;5087936;28;20447;-75
2022/08/31 12:53:09;;;;;;;10.60;9.60;;;;;;;;;;5087112;28;20439;-75
2022/08/31 12:55:41;;;;;;;10.20;9.40;;;;;;;;;;5087326;28;20443;-74
2022/08/31 12:58:18;;;;;;;10.10;9.10;;;;;;;;;;5087011;28;20498;-76
2022/08/31 13:00:45;;;;;;;10.00;9.20;;;;;;;;;;5087074;28;20497;-75
2022/08/31 13:03:17;;;;;;;9.90;9.00;;;;;;;;;;5086891;28;20447;-76
2022/08/31 13:05:59;;;;;;;10.33;9.40;;;;;;;;;;5086815;28;20487;-77
2022/08/31 13:08:26;;;;;;;9.87;8.57;;;;;;;;;;5086903;28;20444;-75
2022/08/31 13:10:55;;;;;;;10.53;9.73;;;;;;;;;;5080248;28;20515;-76
2022/08/31 13:13:23;;;;;;;9.87;9.00;;;;;;;;;;5073877;28;20454;-77
2022/08/31 13:15:50;;;;;;;11.10;10.10;;;;;;;;;;5069332;28;20467;-75
2022/08/31 13:18:24;;;;;;;11.60;10.43;;;;;;;;;;5053659;28;20964;-75
2022/08/31 13:20:54;;;;;;;10.10;9.20;;;;;;;;;;5052917;28;20499;-74
2022/08/31 13:23:25;;;;;;;11.80;9.70;;;;;;;;;;5052350;28;20544;-76
2022/08/31 13:26:01;;;;;;;12.33;10.70;;;;;;;;;;5053117;28;20555;-75
2022/08/31 13:28:29;;;;;;;11.30;10.10;;;;;;;;;;5053267;28;21041;-77
2022/08/31 13:30:58;;;;;;;9.97;9.00;;;;;;;;;;5053059;28;20532;-75
2022/08/31 13:33:25;;;;;;;10.13;9.27;;;;;;;;;;5052744;28;20957;-76
2022/08/31 13:35:54;;;;;;;11.47;10.37;;;;;;;;;;5054924;28;20514;-75
2022/08/31 13:38:27;;;;;;;9.93;9.03;;;;;;;;;;5060580;28;20437;-76
2022/08/31 13:40:55;;;;;;;10.73;8.70;;;;;;;;;;5060210;28;20469;-76
2022/08/31 13:43:25;;;;;;;10.13;9.23;;;;;;;;;;5056622;28;20513;-76
2022/08/31 13:45:56;;;;;;;10.23;9.33;;;;;;;;;;5052249;28;20480;-75
2022/08/31 13:48:27;;;;;;;9.13;8.33;;;;;;;;;;5052675;28;20971;-75
2022/08/31 13:50:59;;;;;;;10.60;9.67;;;;;;;;;;5052862;28;20487;-77
2022/08/31 13:53:38;;;;;;;8.97;8.03;;;;;;;;;;5052731;28;20446;-75
2022/08/31 13:56:53;;;;;;;9.13;8.27;;;;;;;;;;5051985;28;20468;-75
2022/08/31 13:59:16;;;;;;;7.70;7.20;;;;;;;;;;5051881;28;20445;-76
2022/08/31 14:01:46;;;;;;;9.47;8.40;;;;;;;;;;5052204;28;20594;-76
2022/08/31 14:04:34;;;;;;;9.67;8.47;;;;;;;;;;5052022;28;20467;-75
2022/08/31 14:07:02;;;;;;;10.07;9.17;;;;;;;;;;5052187;28;20451;-76
2022/08/31 14:09:29;;;;;;;9.10;8.20;;;;;;;;;;5052753;28;20477;-75
2022/08/31 14:12:03;;;;;;;9.43;8.53;;;;;;;;;;5068354;28;20495;-75
2022/08/31 14:14:40;;;;;;;7.97;7.37;;;;;;;;;;5072491;28;20512;-75
2022/08/31 14:17:07;;;;;;;8.70;7.87;;;;;;;;;;5072370;28;20465;-76
2022/08/31 14:19:37;;;;;;;8.30;7.60;;;;;;;;;;5072037;28;20440;-77
2022/08/31 14:22:15;;;;;;;9.57;8.87;;;;;;;;;;5072357;28;20812;-75
2022/08/31 14:24:43;;;;;;;7.93;7.23;;;;;;;;;;5072236;28;20527;-75
2022/08/31 14:27:12;;;;;;;8.33;7.57;;;;;;;;;;5071873;28;20534;-76
2022/08/31 14:29:40;;;;;;;8.33;7.70;;;;;;;;;;5071376;28;20959;-76
2022/08/31 14:32:07;;;;;;;8.97;8.20;;;;;;;;;;5072392;28;20445;-75
2022/08/31 14:34:36;;;;;;;7.10;6.40;;;;;;;;;;5072356;28;20848;-77
2022/08/31 14:37:05;;;;;;;8.53;7.83;;;;;;;;;;5072153;28;20964;-74
2022/08/31 14:39:32;;;;;;;8.40;7.70;;;;;;;;;;5072191;28;20982;-76
2022/08/31 14:42:01;;;;;;;8.13;7.43;;;;;;;;;;5071786;28;20994;-75
2022/08/31 14:44:30;;;;;;;8.07;7.10;;;;;;;;;;5071282;28;20437;-77
2022/08/31 14:46:58;;;;;;;7.70;7.10;;;;;;;;;;5072089;28;20489;-77
2022/08/31 14:49:25;;;;;;;8.00;7.30;;;;;;;;;;5071735;28;21023;-76
2022/08/31 14:51:53;;;;;;;10.13;8.33;;;;;;;;;;5072272;28;20448;-76
2022/08/31 14:54:20;;;;;;;8.73;7.80;;;;;;;;;;5071568;28;20800;-76
2022/08/31 14:56:49;;;;;;;8.97;8.07;;;;;;;;;;5071321;28;20461;-77
2022/08/31 14:59:18;;;;;;;10.77;8.10;;;;;;;;;;5071543;28;20445;-76